Time;durP1;ratioP1;P1;durP2;ratioP2;P2;SDS_P1;SDS_P2;PMS_P1;PMS_P2;Temp;Humidity;BMP_temperature;BMP_pressure;BME280_temperature;BME280_humidity;BME280_pressure;Samples;Min_cycle;Max_cycle;Signal;HPM_P1;HPM_P2
2021/11/05 00:00:52;;;;;;;;;;;2.20;99.90;;;;;;5075838;28;19928;-73
2021/11/05 00:03:19;;;;;;;;;;;2.20;99.90;;;;;;5079534;28;19925;-76
2021/11/05 00:05:46;;;;;;;;;;;2.10;99.90;;;;;;5079932;28;20248;-76
2021/11/05 00:08:13;;;;;;;;;;;2.10;99.90;;;;;;5077253;28;19924;-73
2021/11/05 00:10:42;;;;;;;;;;;2.20;99.90;;;;;;5075676;28;19934;-73
2021/11/05 00:13:09;;;;;;;;;;;2.10;99.90;;;;;;5074656;28;19924;-73
2021/11/05 00:15:35;;;;;;;;;;;2.10;99.90;;;;;;5075207;28;19924;-73
2021/11/05 00:18:02;;;;;;;;;;;2.20;99.90;;;;;;5075372;28;19928;-75
2021/11/05 00:20:29;;;;;;;;;;;2.10;99.90;;;;;;5080346;28;19935;-75
2021/11/05 00:22:57;;;;;;;;;;;2.10;99.90;;;;;;5075410;28;19925;-74
2021/11/05 00:25:24;;;;;;;;;;;2.20;99.90;;;;;;5075313;28;20323;-73
2021/11/05 00:27:52;;;;;;;;;;;2.10;99.90;;;;;;5076112;28;20371;-75
2021/11/05 00:30:19;;;;;;;;;;;2.10;99.90;;;;;;5075702;28;19935;-74
2021/11/05 00:32:46;;;;;;;;;;;2.20;99.90;;;;;;5075113;28;19985;-73
2021/11/05 00:35:12;;;;;;;;;;;2.10;99.90;;;;;;5075024;28;19928;-74
2021/11/05 00:37:39;;;;;;;;;;;2.10;99.90;;;;;;5074951;28;19934;-73
2021/11/05 00:40:07;;;;;;;;;;;2.00;99.90;;;;;;5075151;28;19935;-74
2021/11/05 00:42:34;;;;;;;;;;;2.00;99.90;;;;;;5075037;28;20252;-74
2021/11/05 00:45:02;;;;;;;;;;;2.00;99.90;;;;;;5074958;28;19924;-74
2021/11/05 00:47:29;;;;;;;;;;;2.00;99.90;;;;;;5075086;28;19931;-74
2021/11/05 00:49:55;;;;;;;;;;;2.00;99.90;;;;;;5075050;28;20345;-74
2021/11/05 00:52:22;;;;;;;;;;;1.90;99.90;;;;;;5074897;28;19928;-73
2021/11/05 00:54:49;;;;;;;;;;;1.90;99.90;;;;;;5074880;28;19935;-73
2021/11/05 00:57:16;;;;;;;;;;;1.90;99.90;;;;;;5072641;28;19958;-75
2021/11/05 00:59:43;;;;;;;;;;;1.80;99.90;;;;;;5072055;28;20279;-75
2021/11/05 01:02:12;;;;;;;;;;;1.90;99.90;;;;;;5070319;28;20320;-75
2021/11/05 01:04:39;;;;;;;;;;;1.70;99.90;;;;;;5072599;28;19940;-75
2021/11/05 01:07:06;;;;;;;;;;;1.80;99.90;;;;;;5074988;28;20275;-76
2021/11/05 01:09:32;;;;;;;;;;;1.90;99.90;;;;;;5074988;28;19928;-75
2021/11/05 01:11:59;;;;;;;;;;;1.80;99.90;;;;;;5074851;28;19933;-75
2021/11/05 01:14:26;;;;;;;;;;;1.90;99.90;;;;;;5074697;28;19975;-75
2021/11/05 01:16:53;;;;;;;;;;;1.80;99.90;;;;;;5074169;28;19924;-75
2021/11/05 01:19:21;;;;;;;;;;;1.80;99.90;;;;;;5074017;28;19943;-75
2021/11/05 01:21:48;;;;;;;;;;;1.80;99.90;;;;;;5074121;28;19964;-75
2021/11/05 01:24:15;;;;;;;;;;;1.80;99.90;;;;;;5074271;28;20360;-75
2021/11/05 01:26:42;;;;;;;;;;;1.80;99.90;;;;;;5077762;28;19925;-75
2021/11/05 01:29:09;;;;;;;;;;;1.80;99.90;;;;;;5077899;28;19924;-75
2021/11/05 01:31:36;;;;;;;;;;;1.80;99.90;;;;;;5077636;28;19986;-75
2021/11/05 01:34:04;;;;;;;;;;;1.70;99.90;;;;;;5077099;28;19924;-75
2021/11/05 01:36:32;;;;;;;;;;;1.80;99.90;;;;;;5077162;28;19990;-75
2021/11/05 01:38:59;;;;;;;;;;;1.70;99.90;;;;;;5077033;28;20337;-75
2021/11/05 01:41:26;;;;;;;;;;;1.70;99.90;;;;;;5077866;28;19925;-75
2021/11/05 01:43:53;;;;;;;;;;;1.70;99.90;;;;;;5077746;28;19928;-75
2021/11/05 01:46:20;;;;;;;;;;;1.70;99.90;;;;;;5078211;28;19935;-75
2021/11/05 01:48:47;;;;;;;;;;;1.60;99.90;;;;;;5077907;28;19935;-75
2021/11/05 01:51:14;;;;;;;;;;;1.60;99.90;;;;;;5077618;28;19929;-75
2021/11/05 01:53:42;;;;;;;;;;;1.60;99.90;;;;;;5077607;28;20397;-74
2021/11/05 01:56:09;;;;;;;;;;;1.60;99.90;;;;;;5077715;28;19924;-74
2021/11/05 01:58:36;;;;;;;;;;;1.50;99.90;;;;;;5076870;28;19932;-74
2021/11/05 02:01:04;;;;;;;;;;;1.50;99.90;;;;;;5077818;28;19928;-74
2021/11/05 02:03:31;;;;;;;;;;;1.40;99.90;;;;;;5077719;28;19925;-74
2021/11/05 02:05:58;;;;;;;;;;;1.30;99.90;;;;;;5077188;28;19931;-74
2021/11/05 02:08:25;;;;;;;;;;;1.40;99.90;;;;;;5077204;28;20315;-74
2021/11/05 02:10:53;;;;;;;;;;;1.40;99.90;;;;;;5077431;28;19946;-74
2021/11/05 02:13:20;;;;;;;;;;;1.40;99.90;;;;;;5077246;28;20011;-74
2021/11/05 02:15:47;;;;;;;;;;;1.40;99.90;;;;;;5076793;28;19932;-74
2021/11/05 02:18:14;;;;;;;;;;;1.40;99.90;;;;;;5076716;28;19932;-74
2021/11/05 02:20:41;;;;;;;;;;;1.50;99.90;;;;;;5076809;28;19924;-74
2021/11/05 02:23:10;;;;;;;;;;;1.40;99.90;;;;;;5077097;28;20003;-74
2021/11/05 02:25:37;;;;;;;;;;;1.50;99.90;;;;;;5077040;28;19925;-74
2021/11/05 02:28:05;;;;;;;;;;;1.40;99.90;;;;;;5077052;28;20011;-74
2021/11/05 02:30:32;;;;;;;;;;;1.40;99.90;;;;;;5077001;28;19925;-74
2021/11/05 02:32:58;;;;;;;;;;;1.40;99.90;;;;;;5076809;28;19943;-74
2021/11/05 02:35:25;;;;;;;;;;;1.40;99.90;;;;;;5075829;28;20357;-74
2021/11/05 02:37:52;;;;;;;;;;;1.40;99.90;;;;;;5075106;28;19932;-74
2021/11/05 02:40:21;;;;;;;;;;;1.40;99.90;;;;;;5076600;28;19924;-74
2021/11/05 02:42:48;;;;;;;;;;;1.40;99.90;;;;;;5076743;28;20035;-74
2021/11/05 02:45:14;;;;;;;;;;;1.40;99.90;;;;;;5076788;28;19928;-74
2021/11/05 02:47:43;;;;;;;;;;;1.40;99.90;;;;;;5076290;28;19931;-73
2021/11/05 02:50:12;;;;;;;;;;;1.30;99.90;;;;;;5076511;28;19974;-73
2021/11/05 02:52:39;;;;;;;;;;;1.30;99.90;;;;;;5076411;28;19925;-74
2021/11/05 02:55:06;;;;;;;;;;;1.40;99.90;;;;;;5076721;28;20014;-74
2021/11/05 02:57:35;;;;;;;;;;;1.40;99.90;;;;;;5076476;28;20275;-78
2021/11/05 03:00:01;;;;;;;;;;;1.40;99.90;;;;;;5079109;28;19924;-73
2021/11/05 03:02:28;;;;;;;;;;;1.40;99.90;;;;;;5080633;28;19931;-77
2021/11/05 03:04:55;;;;;;;;;;;1.40;99.90;;;;;;5076146;28;19932;-74
2021/11/05 03:07:22;;;;;;;;;;;1.40;99.90;;;;;;5076349;28;19935;-74
2021/11/05 03:09:49;;;;;;;;;;;1.40;99.90;;;;;;5076156;28;19925;-74
2021/11/05 03:12:16;;;;;;;;;;;1.40;99.90;;;;;;5075797;28;20266;-74
2021/11/05 03:14:44;;;;;;;;;;;1.40;99.90;;;;;;5076277;28;19924;-74
2021/11/05 03:17:12;;;;;;;;;;;1.30;99.90;;;;;;5076392;28;19934;-75
2021/11/05 03:19:39;;;;;;;;;;;1.30;99.90;;;;;;5076149;28;19932;-76
2021/11/05 03:22:05;;;;;;;;;;;1.30;99.90;;;;;;5076172;28;19931;-76
2021/11/05 03:24:32;;;;;;;;;;;1.40;99.90;;;;;;5076100;28;19935;-76
2021/11/05 03:26:59;;;;;;;;;;;1.30;99.90;;;;;;5076169;28;19964;-76
2021/11/05 03:29:27;;;;;;;;;;;1.30;99.90;;;;;;5076121;28;19924;-76
2021/11/05 03:31:55;;;;;;;;;;;1.30;99.90;;;;;;5076114;28;19925;-76
2021/11/05 03:34:22;;;;;;;;;;;1.30;99.90;;;;;;5073209;28;19924;-75
2021/11/05 03:36:48;;;;;;;;;;;1.30;99.90;;;;;;5075746;28;19925;-75
2021/11/05 03:39:15;;;;;;;;;;;1.30;99.90;;;;;;5075877;28;19924;-75
2021/11/05 03:41:43;;;;;;;;;;;1.30;99.90;;;;;;5075950;28;19924;-75
2021/11/05 03:44:09;;;;;;;;;;;1.40;99.90;;;;;;5075940;28;19931;-74
2021/11/05 03:46:36;;;;;;;;;;;1.30;99.90;;;;;;5075824;28;19924;-75
2021/11/05 03:49:05;;;;;;;;;;;1.30;99.90;;;;;;5075662;28;19925;-75
2021/11/05 03:51:31;;;;;;;;;;;1.30;99.90;;;;;;5076043;28;19925;-74
2021/11/05 03:53:58;;;;;;;;;;;1.30;99.90;;;;;;5153379;22;20275;-73
2021/11/05 03:56:26;;;;;;;;;;;1.30;99.90;;;;;;5115012;28;19934;-73
2021/11/05 03:58:53;;;;;;;;;;;1.30;99.90;;;;;;5116430;28;19936;-73
2021/11/05 04:01:20;;;;;;;;;;;1.30;99.90;;;;;;5116237;28;19923;-73
2021/11/05 04:03:47;;;;;;;;;;;1.30;99.90;;;;;;5116053;28;19959;-73
2021/11/05 04:06:16;;;;;;;;;;;1.30;99.90;;;;;;5116125;28;19923;-74
2021/11/05 04:08:43;;;;;;;;;;;1.30;99.90;;;;;;5116265;28;20370;-73
2021/11/05 04:11:09;;;;;;;;;;;1.30;99.90;;;;;;5116150;28;19924;-74
2021/11/05 04:13:36;;;;;;;;;;;1.30;99.90;;;;;;5115909;28;19924;-73
2021/11/05 04:16:03;;;;;;;;;;;1.30;99.90;;;;;;5116246;28;19924;-73
2021/11/05 04:18:30;;;;;;;;;;;1.30;99.90;;;;;;5115929;28;19923;-74
2021/11/05 04:20:57;;;;;;;;;;;1.20;99.90;;;;;;5115700;28;19924;-73
2021/11/05 04:23:25;;;;;;;;;;;1.20;99.90;;;;;;5115900;28;19965;-74
2021/11/05 04:25:52;;;;;;;;;;;1.20;99.90;;;;;;5115898;28;20352;-74
2021/11/05 04:28:19;;;;;;;;;;;1.10;99.90;;;;;;5115934;28;19924;-74
2021/11/05 04:30:46;;;;;;;;;;;1.20;99.90;;;;;;5115941;28;19924;-74
2021/11/05 04:33:12;;;;;;;;;;;1.10;99.90;;;;;;5115943;28;19928;-74
2021/11/05 04:35:39;;;;;;;;;;;1.10;99.90;;;;;;5115897;28;19924;-74
2021/11/05 04:38:06;;;;;;;;;;;1.10;99.90;;;;;;5115698;28;19923;-74
2021/11/05 04:40:34;;;;;;;;;;;1.10;99.90;;;;;;5115976;28;19924;-74
2021/11/05 04:43:01;;;;;;;;;;;1.20;99.90;;;;;;5115588;28;20464;-74
2021/11/05 04:45:28;;;;;;;;;;;1.10;99.90;;;;;;5115505;28;19924;-74
2021/11/05 04:47:55;;;;;;;;;;;1.10;99.90;;;;;;5115536;28;19928;-74
2021/11/05 04:50:22;;;;;;;;;;;1.10;99.90;;;;;;5115782;28;19924;-74
2021/11/05 04:52:49;;;;;;;;;;;1.20;99.90;;;;;;5115643;28;19934;-74
2021/11/05 04:55:16;;;;;;;;;;;1.10;99.90;;;;;;5115333;28;19950;-74
2021/11/05 04:57:44;;;;;;;;;;;1.10;99.90;;;;;;5115499;28;19927;-74
2021/11/05 05:00:11;;;;;;;;;;;1.10;99.90;;;;;;5117154;28;19934;-74
2021/11/05 05:02:38;;;;;;;;;;;1.10;99.90;;;;;;5119915;28;19989;-74
2021/11/05 05:05:05;;;;;;;;;;;1.10;99.90;;;;;;5119597;28;19970;-74
2021/11/05 05:07:32;;;;;;;;;;;1.10;99.90;;;;;;5119593;28;19928;-74
2021/11/05 05:09:59;;;;;;;;;;;1.20;99.90;;;;;;5119752;28;19934;-74
2021/11/05 05:12:26;;;;;;;;;;;1.10;99.90;;;;;;5119642;28;19923;-74
2021/11/05 05:14:54;;;;;;;;;;;1.20;99.90;;;;;;5119412;28;20347;-74
2021/11/05 05:17:21;;;;;;;;;;;1.20;99.90;;;;;;5119693;28;19924;-74
2021/11/05 05:19:48;;;;;;;;;;;1.20;99.90;;;;;;5119400;28;19924;-74
2021/11/05 05:22:15;;;;;;;;;;;1.20;99.90;;;;;;5119397;28;19935;-74
2021/11/05 05:24:42;;;;;;;;;;;1.30;99.90;;;;;;5119462;28;19931;-74
2021/11/05 05:27:09;;;;;;;;;;;1.30;99.90;;;;;;5119265;28;20356;-74
2021/11/05 05:29:35;;;;;;;;;;;1.30;99.90;;;;;;5119176;28;19923;-74
2021/11/05 05:32:04;;;;;;;;;;;1.30;99.90;;;;;;5119192;28;19924;-74
2021/11/05 05:34:31;;;;;;;;;;;1.40;99.90;;;;;;5119212;28;20336;-74
2021/11/05 05:36:58;;;;;;;;;;;1.40;99.90;;;;;;5119063;28;19924;-74
2021/11/05 05:39:24;;;;;;;;;;;1.40;99.90;;;;;;5118951;28;19938;-74
2021/11/05 05:41:52;;;;;;;;;;;1.50;99.90;;;;;;5118814;28;19924;-74
2021/11/05 05:44:19;;;;;;;;;;;1.40;99.90;;;;;;5119057;28;20026;-74
2021/11/05 05:46:46;;;;;;;;;;;1.50;99.90;;;;;;5119008;28;20263;-74
2021/11/05 05:49:14;;;;;;;;;;;1.50;99.90;;;;;;5118654;28;19934;-74
2021/11/05 05:51:41;;;;;;;;;;;1.60;99.90;;;;;;5118953;28;20339;-74
2021/11/05 05:54:08;;;;;;;;;;;1.60;99.90;;;;;;5118523;28;19923;-74
2021/11/05 05:56:35;;;;;;;;;;;1.70;99.90;;;;;;5118623;28;19927;-74
2021/11/05 05:59:02;;;;;;;;;;;1.70;99.90;;;;;;5118689;28;20329;-74
2021/11/05 06:01:29;;;;;;;;;;;1.70;99.90;;;;;;5118449;28;19924;-74
2021/11/05 06:03:59;;;;;;;;;;;1.70;99.90;;;;;;5118553;28;19924;-74
2021/11/05 06:06:27;;;;;;;;;;;1.80;99.90;;;;;;5118726;28;20247;-74
2021/11/05 06:08:54;;;;;;;;;;;1.80;99.90;;;;;;5118557;28;20356;-73
2021/11/05 06:11:21;;;;;;;;;;;1.90;99.90;;;;;;5118423;28;19924;-74
2021/11/05 06:13:48;;;;;;;;;;;1.90;99.90;;;;;;5118655;28;19924;-74
2021/11/05 06:16:14;;;;;;;;;;;1.90;99.90;;;;;;5118468;28;19977;-74
2021/11/05 06:18:41;;;;;;;;;;;2.00;99.90;;;;;;5118361;28;19923;-74
2021/11/05 06:21:08;;;;;;;;;;;2.00;99.90;;;;;;5118284;28;20344;-74
2021/11/05 06:23:36;;;;;;;;;;;2.00;99.90;;;;;;5118439;28;19928;-74
2021/11/05 06:26:03;;;;;;;;;;;2.10;99.90;;;;;;5118130;28;19938;-74
2021/11/05 06:28:30;;;;;;;;;;;2.10;99.90;;;;;;5118305;28;19955;-74
2021/11/05 06:30:57;;;;;;;;;;;2.10;99.90;;;;;;5117968;28;20271;-74
2021/11/05 06:33:24;;;;;;;;;;;2.10;99.90;;;;;;5118060;28;19934;-74
2021/11/05 06:35:50;;;;;;;;;;;2.10;99.90;;;;;;5118045;28;19934;-74
2021/11/05 06:38:17;;;;;;;;;;;2.10;99.90;;;;;;5117979;28;20020;-74
2021/11/05 06:40:45;;;;;;;;;;;2.20;99.90;;;;;;5117792;28;20373;-74
2021/11/05 06:43:12;;;;;;;;;;;2.20;99.90;;;;;;5117994;28;19924;-74
2021/11/05 06:45:39;;;;;;;;;;;2.20;99.90;;;;;;5117776;28;20000;-74
2021/11/05 06:48:06;;;;;;;;;;;2.20;99.90;;;;;;5117778;28;19934;-74
2021/11/05 06:50:33;;;;;;;;;;;2.30;99.90;;;;;;5117726;28;19924;-74
2021/11/05 06:53:00;;;;;;;;;;;2.30;99.90;;;;;;5117916;28;19924;-74
2021/11/05 06:55:26;;;;;;;;;;;2.30;99.90;;;;;;5117455;28;20335;-73
2021/11/05 06:57:55;;;;;;;;;;;2.30;99.90;;;;;;5117726;28;19924;-73
2021/11/05 07:00:22;;;;;;;;;;;2.30;99.90;;;;;;5118134;28;20255;-74
2021/11/05 07:02:48;;;;;;;;;;;2.30;99.90;;;;;;5120532;28;20347;-74
2021/11/05 07:05:15;;;;;;;;;;;2.40;99.90;;;;;;5117362;28;19934;-74
2021/11/05 07:07:42;;;;;;;;;;;2.40;99.90;;;;;;5117214;28;19934;-74
2021/11/05 07:10:10;;;;;;;;;;;2.40;99.90;;;;;;5117500;28;19934;-74
2021/11/05 07:12:38;;;;;;;;;;;2.40;99.90;;;;;;5117386;28;19935;-74
2021/11/05 07:15:07;;;;;;;;;;;2.40;99.90;;;;;;5117149;28;19929;-74
2021/11/05 07:17:34;;;;;;;;;;;2.50;99.90;;;;;;5117242;28;19934;-74
2021/11/05 07:20:00;;;;;;;;;;;2.50;99.90;;;;;;5117179;28;19923;-74
2021/11/05 07:22:28;;;;;;;;;;;2.50;99.90;;;;;;5116272;28;20390;-75
2021/11/05 07:24:54;;;;;;;;;;;2.50;99.90;;;;;;5117371;28;19928;-74
2021/11/05 07:27:21;;;;;;;;;;;2.60;99.90;;;;;;5116902;28;19923;-74
2021/11/05 07:29:49;;;;;;;;;;;2.60;99.90;;;;;;5116859;28;19934;-75
2021/11/05 07:32:17;;;;;;;;;;;2.60;99.90;;;;;;5116885;28;19924;-75
2021/11/05 07:34:44;;;;;;;;;;;2.60;99.90;;;;;;5116802;28;20362;-75
2021/11/05 07:37:14;;;;;;;;;;;2.70;99.90;;;;;;5116821;28;19938;-75
2021/11/05 07:39:42;;;;;;;;;;;2.70;99.90;;;;;;5116955;28;19924;-75
2021/11/05 07:42:08;;;;;;;;;;;2.60;99.90;;;;;;5116774;28;19997;-75
2021/11/05 07:44:36;;;;;;;;;;;2.70;99.90;;;;;;5116717;28;19928;-75
2021/11/05 07:47:03;;;;;;;;;;;2.70;99.90;;;;;;5116638;28;19923;-74
2021/11/05 07:49:32;;;;;;;;;;;2.70;99.90;;;;;;5116532;28;19924;-75
2021/11/05 07:51:58;;;;;;;;;;;2.70;99.90;;;;;;5116453;28;19934;-74
2021/11/05 07:54:25;;;;;;;;;;;2.70;99.90;;;;;;5116366;28;19927;-75
2021/11/05 07:56:52;;;;;;;;;;;2.70;99.90;;;;;;5116557;28;19930;-75
2021/11/05 07:59:19;;;;;;;;;;;2.80;99.90;;;;;;5116407;28;19928;-75
2021/11/05 08:01:46;;;;;;;;;;;2.80;99.90;;;;;;5116169;28;19931;-75
2021/11/05 08:04:13;;;;;;;;;;;2.80;99.90;;;;;;5116239;28;19934;-75
2021/11/05 08:06:41;;;;;;;;;;;2.80;99.90;;;;;;5116545;28;19924;-75
2021/11/05 08:09:08;;;;;;;;;;;2.80;99.90;;;;;;5116177;28;19924;-75
2021/11/05 08:11:35;;;;;;;;;;;2.90;99.90;;;;;;5116112;28;19981;-75
2021/11/05 08:14:02;;;;;;;;;;;2.90;99.90;;;;;;5116152;28;19924;-74
2021/11/05 08:16:29;;;;;;;;;;;2.90;99.90;;;;;;5116153;28;19924;-74
2021/11/05 08:18:56;;;;;;;;;;;2.90;99.90;;;;;;5116035;28;20271;-74
2021/11/05 08:21:23;;;;;;;;;;;2.90;99.90;;;;;;5115909;28;19930;-75
2021/11/05 08:23:51;;;;;;;;;;;2.90;99.90;;;;;;5115862;28;19934;-74
2021/11/05 08:26:18;;;;;;;;;;;3.00;99.90;;;;;;5116059;28;19932;-75
2021/11/05 08:28:45;;;;;;;;;;;3.00;99.90;;;;;;5115835;28;20348;-74
2021/11/05 08:31:12;;;;;;;;;;;3.10;99.90;;;;;;5115786;28;19924;-74
2021/11/05 08:33:39;;;;;;;;;;;3.10;99.90;;;;;;5115745;28;19981;-74
2021/11/05 08:36:06;;;;;;;;;;;3.10;99.90;;;;;;5115181;28;20389;-74
2021/11/05 08:38:33;;;;;;;;;;;3.10;99.90;;;;;;5115777;28;19924;-74
2021/11/05 08:41:01;;;;;;;;;;;3.20;99.90;;;;;;5115813;28;19924;-74
2021/11/05 08:43:30;;;;;;;;;;;3.20;99.90;;;;;;5115518;28;20332;-74
2021/11/05 08:45:57;;;;;;;;;;;3.30;99.90;;;;;;5115563;28;19924;-74
2021/11/05 08:48:24;;;;;;;;;;;3.30;99.90;;;;;;5115530;28;19934;-74
2021/11/05 08:50:52;;;;;;;;;;;3.40;99.90;;;;;;5115755;28;19934;-74
2021/11/05 08:53:19;;;;;;;;;;;3.40;99.90;;;;;;5115328;28;20271;-75
2021/11/05 08:55:46;;;;;;;;;;;3.50;99.90;;;;;;5115595;28;19935;-75
2021/11/05 08:58:15;;;;;;;;;;;3.50;99.90;;;;;;5115696;28;20342;-75
2021/11/05 09:00:41;;;;;;;;;;;3.60;99.90;;;;;;5115718;28;19924;-75
2021/11/05 09:03:08;;;;;;;;;;;3.60;99.90;;;;;;5115897;28;19924;-75
2021/11/05 09:05:35;;;;;;;;;;;3.70;99.90;;;;;;5115471;28;20275;-75
2021/11/05 09:08:02;;;;;;;;;;;3.70;99.90;;;;;;5115666;28;19971;-76
2021/11/05 09:10:29;;;;;;;;;;;3.80;99.90;;;;;;5115704;28;19924;-75
2021/11/05 09:12:56;;;;;;;;;;;3.80;99.90;;;;;;5115490;28;19928;-75
2021/11/05 09:15:25;;;;;;;;;;;3.90;99.90;;;;;;5115604;28;19924;-75
2021/11/05 09:17:52;;;;;;;;;;;3.90;99.90;;;;;;5115499;28;19935;-75
2021/11/05 09:20:19;;;;;;;;;;;3.90;99.90;;;;;;5115430;28;20362;-75
2021/11/05 09:22:46;;;;;;;;;;;3.90;99.90;;;;;;5115267;28;19924;-74
2021/11/05 09:25:13;;;;;;;;;;;3.90;99.90;;;;;;5115242;28;19924;-74
2021/11/05 09:27:40;;;;;;;;;;;3.90;99.90;;;;;;5115223;28;19930;-74
2021/11/05 09:30:07;;;;;;;;;;;3.90;99.90;;;;;;5115224;28;19950;-74
2021/11/05 09:32:36;;;;;;;;;;;4.00;99.90;;;;;;5115325;28;19928;-74
2021/11/05 09:35:02;;;;;;;;;;;4.00;99.90;;;;;;5115110;28;19934;-74
2021/11/05 09:37:29;;;;;;;;;;;4.00;99.90;;;;;;5115227;28;19930;-74
2021/11/05 09:39:56;;;;;;;;;;;4.10;99.90;;;;;;5115117;28;19923;-75
2021/11/05 09:42:23;;;;;;;;;;;4.10;99.90;;;;;;5115072;28;19923;-75
2021/11/05 09:44:50;;;;;;;;;;;4.10;99.90;;;;;;5115092;28;20263;-75
2021/11/05 09:47:17;;;;;;;;;;;4.10;99.90;;;;;;5118381;28;19937;-75
2021/11/05 09:49:45;;;;;;;;;;;4.10;99.90;;;;;;5118958;28;19931;-75
2021/11/05 09:52:12;;;;;;;;;;;4.20;99.90;;;;;;5119029;28;19934;-75
2021/11/05 09:54:39;;;;;;;;;;;4.20;99.90;;;;;;5118740;28;20251;-75
2021/11/05 09:57:06;;;;;;;;;;;4.20;99.90;;;;;;5119013;28;20271;-75
2021/11/05 09:59:33;;;;;;;;;;;4.30;99.90;;;;;;5119081;28;20040;-75
2021/11/05 10:02:00;;;;;;;;;;;4.30;99.90;;;;;;5118331;28;20356;-75
2021/11/05 10:04:27;;;;;;;;;;;4.30;99.90;;;;;;5118537;28;19923;-75
2021/11/05 10:07:02;;;;;;;;;;;4.40;99.90;;;;;;5117659;28;19930;-75
2021/11/05 10:09:36;;;;;;;;;;;4.40;99.90;;;;;;5118495;28;19927;-75
2021/11/05 10:12:06;;;;;;;;;;;4.40;99.90;;;;;;5118819;28;19954;-75
2021/11/05 10:14:33;;;;;;;;;;;4.50;99.90;;;;;;5118362;28;19931;-73
2021/11/05 10:17:00;;;;;;;;;;;4.60;99.90;;;;;;5118502;28;19931;-75
2021/11/05 10:19:31;;;;;;;;;;;4.60;99.90;;;;;;5118601;28;19928;-75
2021/11/05 10:21:57;;;;;;;;;;;4.70;99.90;;;;;;5118360;28;20248;-75
2021/11/05 10:24:26;;;;;;;;;;;4.70;99.90;;;;;;5118804;28;19923;-75
2021/11/05 10:26:53;;;;;;;;;;;4.80;99.90;;;;;;5118367;28;19934;-75
2021/11/05 10:29:29;;;;;;;;;;;4.80;99.90;;;;;;5118213;28;20355;-75
2021/11/05 10:32:05;;;;;;;;;;;4.80;99.90;;;;;;5118168;28;19930;-74
2021/11/05 10:34:46;;;;;;;;;;;4.80;99.90;;;;;;5118151;28;19924;-74
2021/11/05 10:37:13;;;;;;;;;;;4.80;99.90;;;;;;5118036;28;19934;-75
2021/11/05 10:39:41;;;;;;;;;;;4.90;99.90;;;;;;5117864;28;19931;-75
2021/11/05 10:42:08;;;;;;;;;;;4.90;99.90;;;;;;5118060;28;19924;-75
2021/11/05 10:44:34;;;;;;;;;;;5.10;99.90;;;;;;5117637;28;19928;-75
2021/11/05 10:47:06;;;;;;;;;;;5.10;99.90;;;;;;5118181;28;19930;-75
2021/11/05 10:49:40;;;;;;;;;;;5.20;99.90;;;;;;5117933;28;19924;-75
2021/11/05 10:52:16;;;;;;;;;;;5.30;99.90;;;;;;5117977;28;19923;-75
2021/11/05 10:54:54;;;;;;;;;;;5.30;99.90;;;;;;5117639;28;19924;-75
2021/11/05 10:57:35;;;;;;;;;;;5.30;99.90;;;;;;5116643;28;19946;-75
2021/11/05 11:00:17;;;;;;;;;;;5.30;99.90;;;;;;5117602;28;19924;-75
2021/11/05 11:02:44;;;;;;;;;;;5.30;99.90;;;;;;5117211;28;20259;-75
2021/11/05 11:05:26;;;;;;;;;;;5.30;99.90;;;;;;5118717;28;19924;-74
2021/11/05 11:07:52;;;;;;;;;;;5.30;99.90;;;;;;5178563;22;19935;-75
2021/11/05 11:10:31;;;;;;;;;;;5.30;99.90;;;;;;5078188;28;19935;-75
2021/11/05 11:12:58;;;;;;;;;;;5.30;99.90;;;;;;5133777;22;19959;-77
2021/11/05 11:15:31;;;;;;;;;;;5.40;99.90;;;;;;5077114;28;19987;-75
2021/11/05 11:17:58;;;;;;;;;;;5.40;99.90;;;;;;5077809;28;19924;-79
2021/11/05 11:20:28;;;;;;;;;;;5.40;99.90;;;;;;5079150;28;19914;-75
2021/11/05 11:22:55;;;;;;;;;;;5.50;99.90;;;;;;5076380;28;19940;-75
2021/11/05 11:25:22;;;;;;;;;;;5.50;99.90;;;;;;5076476;28;19924;-76
2021/11/05 11:27:50;;;;;;;;;;;5.40;99.90;;;;;;5077680;28;19931;-77
2021/11/05 11:30:18;;;;;;;;;;;5.50;99.90;;;;;;5079835;28;19932;-77
2021/11/05 11:32:45;;;;;;;;;;;5.50;99.90;;;;;;5077095;28;19932;-74
2021/11/05 11:35:13;;;;;;;;;;;5.50;99.90;;;;;;5076189;28;19931;-74
2021/11/05 11:37:39;;;;;;;;;;;5.60;99.90;;;;;;5076267;28;19924;-74
2021/11/05 11:40:07;;;;;;;;;;;5.60;99.90;;;;;;5076360;28;19924;-74
2021/11/05 11:42:34;;;;;;;;;;;5.70;99.90;;;;;;5076243;28;19990;-73
2021/11/05 11:45:02;;;;;;;;;;;5.80;99.90;;;;;;5076233;28;19935;-74
2021/11/05 11:47:37;;;;;;;;;;;5.90;99.90;;;;;;5076139;28;19947;-73
2021/11/05 11:50:04;;;;;;;;;;;5.90;99.90;;;;;;5075707;28;19928;-73
2021/11/05 11:52:32;;;;;;;;;;;6.00;99.90;;;;;;5075635;28;19924;-74
2021/11/05 11:54:59;;;;;;;;;;;5.90;99.90;;;;;;5075813;28;19924;-74
2021/11/05 11:57:27;;;;;;;;;;;6.00;99.90;;;;;;5075480;28;19932;-74
2021/11/05 12:00:04;;;;;;;;;;;6.00;99.90;;;;;;5075766;28;19961;-74
2021/11/05 12:02:32;;;;;;;;;;;6.00;99.90;;;;;;5075640;28;19934;-75
2021/11/05 12:04:59;;;;;;;;;;;6.00;99.90;;;;;;5075588;28;19936;-74
2021/11/05 12:07:26;;;;;;;;;;;6.00;99.90;;;;;;5076738;28;20288;-75
2021/11/05 12:09:52;;;;;;;;;;;6.00;99.90;;;;;;5077040;28;19924;-77
2021/11/05 12:12:33;;;;;;;;;;;6.00;99.90;;;;;;5075760;28;19932;-77
2021/11/05 12:15:16;;;;;;;;;;;6.00;99.90;;;;;;5078519;28;19974;-75
2021/11/05 12:18:10;;;;;;;;;;;6.00;99.90;;;;;;5075762;28;19932;-75
2021/11/05 12:20:38;;;;;;;;;;;6.00;99.90;;;;;;5014221;28;20016;-75
2021/11/05 12:23:17;;;;;;;;;;;6.10;99.90;;;;;;5013999;28;19929;-75
2021/11/05 12:25:45;;;;;;;;;;;6.10;99.90;;;;;;5014005;28;20389;-75
2021/11/05 12:28:14;;;;;;;;;;;6.10;99.90;;;;;;5014159;28;19925;-75
2021/11/05 12:30:43;;;;;;;;;;;6.20;99.90;;;;;;5014067;28;19926;-75
2021/11/05 12:33:25;;;;;;;;;;;6.20;99.90;;;;;;5013966;28;20331;-75
2021/11/05 12:35:52;;;;;;;;;;;6.30;99.90;;;;;;5013864;28;19926;-75
2021/11/05 12:38:19;;;;;;;;;;;6.30;99.90;;;;;;5013471;28;20012;-75
2021/11/05 12:40:55;;;;;;;;;;;6.40;99.90;;;;;;5013353;28;19936;-75
2021/11/05 12:43:37;;;;;;;;;;;6.60;99.90;;;;;;5013716;28;19925;-75
2021/11/05 12:46:06;;;;;;;;;;;6.60;99.90;;;;;;5013951;28;20404;-75
2021/11/05 12:49:03;;;;;;;;;;;6.70;99.90;;;;;;5013799;28;19925;-75
2021/11/05 12:51:35;;;;;;;;;;;6.80;99.90;;;;;;4936295;29;20299;-75
2021/11/05 12:54:04;;;;;;;;;;;6.80;99.90;;;;;;4936201;29;19927;-75
2021/11/05 12:56:30;;;;;;;;;;;6.90;99.90;;;;;;4968362;28;20274;-75
2021/11/05 12:58:58;;;;;;;;;;;6.90;99.90;;;;;;4994032;28;19965;-75
2021/11/05 13:01:27;;;;;;;;;;;6.90;99.90;;;;;;4994008;28;19930;-75
2021/11/05 13:04:07;;;;;;;;;;;7.00;99.90;;;;;;4993953;28;20246;-75
2021/11/05 13:06:35;;;;;;;;;;;7.00;99.90;;;;;;4994053;28;19926;-75
2021/11/05 13:09:02;;;;;;;;;;;7.10;99.90;;;;;;4994003;28;19961;-75
2021/11/05 13:11:29;;;;;;;;;;;7.10;99.90;;;;;;4993676;28;20289;-74
2021/11/05 13:13:56;;;;;;;;;;;7.00;99.90;;;;;;4994012;28;19926;-75
2021/11/05 13:16:23;;;;;;;;;;;7.10;99.90;;;;;;4993911;28;19926;-75
2021/11/05 13:18:51;;;;;;;;;;;7.10;99.90;;;;;;4993905;28;19926;-75
2021/11/05 13:21:18;;;;;;;;;;;7.10;99.90;;;;;;4995512;28;19945;-75
2021/11/05 13:23:45;;;;;;;;;;;7.20;99.90;;;;;;4997713;28;19996;-76
2021/11/05 13:26:12;;;;;;;;;;;7.30;99.90;;;;;;5056903;28;20359;-76
2021/11/05 13:28:39;;;;;;;;;;;7.30;99.90;;;;;;5078785;28;19935;-76
2021/11/05 13:31:06;;;;;;;;;;;7.30;99.90;;;;;;5078725;28;19935;-76
2021/11/05 13:33:33;;;;;;;;;;;7.40;99.90;;;;;;5078726;28;19935;-75
2021/11/05 13:36:02;;;;;;;;;;;7.50;99.90;;;;;;5078616;28;19924;-75
2021/11/05 13:38:29;;;;;;;;;;;7.50;99.90;;;;;;5078526;28;19939;-75
2021/11/05 13:40:56;;;;;;;;;;;7.50;99.90;;;;;;5078465;28;20275;-75
2021/11/05 13:43:24;;;;;;;;;;;7.50;99.90;;;;;;5078645;28;20261;-76
2021/11/05 13:45:51;;;;;;;;;;;7.60;99.90;;;;;;5078415;28;19924;-75
2021/11/05 13:48:19;;;;;;;;;;;7.60;99.90;;;;;;5078361;28;20015;-75
2021/11/05 13:50:46;;;;;;;;;;;7.70;99.90;;;;;;5078297;28;20001;-76
2021/11/05 13:53:17;;;;;;;;;;;7.80;99.90;;;;;;5078203;28;19925;-76
2021/11/05 13:55:44;;;;;;;;;;;7.80;99.90;;;;;;5078254;28;20031;-75
2021/11/05 13:58:11;;;;;;;;;;;7.80;99.90;;;;;;5077795;28;19931;-75
2021/11/05 14:00:38;;;;;;;;;;;7.80;99.90;;;;;;5077786;28;20363;-76
2021/11/05 14:03:05;;;;;;;;;;;7.80;99.90;;;;;;5078279;28;19928;-76
2021/11/05 14:05:32;;;;;;;;;;;7.90;99.90;;;;;;5077916;28;20298;-75
2021/11/05 14:08:02;;;;;;;;;;;7.90;99.90;;;;;;5078036;28;19924;-75
2021/11/05 14:10:31;;;;;;;;;;;7.90;99.90;;;;;;5078002;28;19932;-76
2021/11/05 14:12:58;;;;;;;;;;;7.80;99.90;;;;;;5077673;28;19924;-75
2021/11/05 14:15:25;;;;;;;;;;;7.80;99.90;;;;;;5077966;28;19971;-75
2021/11/05 14:17:52;;;;;;;;;;;7.80;99.90;;;;;;5078056;28;19951;-77
2021/11/05 14:20:26;;;;;;;;;;;7.80;99.90;;;;;;5078359;28;19925;-75
2021/11/05 14:22:53;;;;;;;;;;;7.80;99.90;;;;;;5077562;28;19931;-75
2021/11/05 14:25:22;;;;;;;;;;;7.80;99.90;;;;;;5077518;28;19935;-75
2021/11/05 14:27:50;;;;;;;;;;;7.80;99.90;;;;;;5077306;28;19924;-75
2021/11/05 14:30:18;;;;;;;;;;;7.80;99.90;;;;;;5076883;28;19934;-74
2021/11/05 14:32:48;;;;;;;;;;;7.80;99.90;;;;;;5076129;28;20307;-75
2021/11/05 14:35:15;;;;;;;;;;;7.80;99.90;;;;;;5077464;28;19924;-75